sensor_id;sensor_type;location;lat;lon;timestamp;temperature;humidity
37642;DHT22;23486;51.956;5.888;2024-02-26T00:00:33;5.80;99.90
37642;DHT22;23486;51.956;5.888;2024-02-26T00:03:00;5.80;99.90
37642;DHT22;23486;51.956;5.888;2024-02-26T00:05:25;5.80;99.90
37642;DHT22;23486;51.956;5.888;2024-02-26T00:07:51;5.70;99.90
37642;DHT22;23486;51.956;5.888;2024-02-26T00:10:16;5.80;99.90
37642;DHT22;23486;51.956;5.888;2024-02-26T00:12:42;5.60;99.90
37642;DHT22;23486;51.956;5.888;2024-02-26T00:15:08;5.70;99.90
37642;DHT22;23486;51.956;5.888;2024-02-26T00:17:35;5.70;99.90
37642;DHT22;23486;51.956;5.888;2024-02-26T00:20:01;5.70;99.90
37642;DHT22;23486;51.956;5.888;2024-02-26T00:22:30;5.70;99.90
37642;DHT22;23486;51.956;5.888;2024-02-26T00:24:55;5.70;99.90
37642;DHT22;23486;51.956;5.888;2024-02-26T00:27:21;5.70;99.90
37642;DHT22;23486;51.956;5.888;2024-02-26T00:29:46;5.60;99.90
37642;DHT22;23486;51.956;5.888;2024-02-26T00:32:12;5.60;99.90
37642;DHT22;23486;51.956;5.888;2024-02-26T00:34:37;5.60;99.90
37642;DHT22;23486;51.956;5.888;2024-02-26T00:37:02;5.60;99.90
37642;DHT22;23486;51.956;5.888;2024-02-26T00:39:28;5.60;99.90
37642;DHT22;23486;51.956;5.888;2024-02-26T00:41:53;5.60;99.90
37642;DHT22;23486;51.956;5.888;2024-02-26T00:44:19;5.60;99.90
37642;DHT22;23486;51.956;5.888;2024-02-26T00:46:45;5.60;99.90
37642;DHT22;23486;51.956;5.888;2024-02-26T00:49:10;5.60;99.90
37642;DHT22;23486;51.956;5.888;2024-02-26T00:51:35;5.60;99.90
37642;DHT22;23486;51.956;5.888;2024-02-26T00:54:01;5.60;99.90
37642;DHT22;23486;51.956;5.888;2024-02-26T00:56:27;5.60;99.90
37642;DHT22;23486;51.956;5.888;2024-02-26T00:58:52;5.70;99.90
37642;DHT22;23486;51.956;5.888;2024-02-26T01:01:18;5.70;99.90
37642;DHT22;23486;51.956;5.888;2024-02-26T01:03:43;5.70;99.90
37642;DHT22;23486;51.956;5.888;2024-02-26T01:06:09;5.70;99.90
37642;DHT22;23486;51.956;5.888;2024-02-26T01:08:35;5.70;99.90
37642;DHT22;23486;51.956;5.888;2024-02-26T01:11:01;5.80;99.90
37642;DHT22;23486;51.956;5.888;2024-02-26T01:13:26;5.80;99.90
37642;DHT22;23486;51.956;5.888;2024-02-26T01:15:52;5.80;99.90
37642;DHT22;23486;51.956;5.888;2024-02-26T01:18:17;5.80;99.90
37642;DHT22;23486;51.956;5.888;2024-02-26T01:20:43;5.90;99.90
37642;DHT22;23486;51.956;5.888;2024-02-26T01:23:08;6.00;99.90
37642;DHT22;23486;51.956;5.888;2024-02-26T01:25:34;5.90;99.90
37642;DHT22;23486;51.956;5.888;2024-02-26T01:27:59;6.00;99.90
37642;DHT22;23486;51.956;5.888;2024-02-26T01:30:25;6.00;99.90
37642;DHT22;23486;51.956;5.888;2024-02-26T01:32:50;6.10;99.90
37642;DHT22;23486;51.956;5.888;2024-02-26T01:35:16;6.10;99.90
37642;DHT22;23486;51.956;5.888;2024-02-26T01:37:41;6.10;99.90
37642;DHT22;23486;51.956;5.888;2024-02-26T01:40:07;6.10;99.90
37642;DHT22;23486;51.956;5.888;2024-02-26T01:42:34;6.20;99.90
37642;DHT22;23486;51.956;5.888;2024-02-26T01:45:03;6.20;99.90
37642;DHT22;23486;51.956;5.888;2024-02-26T01:47:29;6.20;99.90
37642;DHT22;23486;51.956;5.888;2024-02-26T01:49:54;6.20;99.90
37642;DHT22;23486;51.956;5.888;2024-02-26T01:52:20;6.20;99.90
37642;DHT22;23486;51.956;5.888;2024-02-26T01:54:46;6.20;99.90
37642;DHT22;23486;51.956;5.888;2024-02-26T01:57:12;6.20;99.90
37642;DHT22;23486;51.956;5.888;2024-02-26T01:59:37;6.20;99.90
37642;DHT22;23486;51.956;5.888;2024-02-26T02:02:05;6.20;99.90
37642;DHT22;23486;51.956;5.888;2024-02-26T02:04:31;6.20;99.90
37642;DHT22;23486;51.956;5.888;2024-02-26T02:06:57;6.20;99.90
37642;DHT22;23486;51.956;5.888;2024-02-26T02:09:23;6.20;99.90
37642;DHT22;23486;51.956;5.888;2024-02-26T02:11:48;6.10;99.90
37642;DHT22;23486;51.956;5.888;2024-02-26T02:14:14;6.10;99.90
37642;DHT22;23486;51.956;5.888;2024-02-26T02:16:40;6.10;99.90
37642;DHT22;23486;51.956;5.888;2024-02-26T02:19:05;6.00;99.90
37642;DHT22;23486;51.956;5.888;2024-02-26T02:21:31;6.00;99.90
37642;DHT22;23486;51.956;5.888;2024-02-26T02:23:56;6.00;99.90
37642;DHT22;23486;51.956;5.888;2024-02-26T02:26:22;5.90;99.90
37642;DHT22;23486;51.956;5.888;2024-02-26T02:28:47;5.90;99.90
37642;DHT22;23486;51.956;5.888;2024-02-26T02:31:13;5.90;99.90
37642;DHT22;23486;51.956;5.888;2024-02-26T02:33:39;5.80;99.90
37642;DHT22;23486;51.956;5.888;2024-02-26T02:36:04;5.80;99.90
37642;DHT22;23486;51.956;5.888;2024-02-26T02:38:34;5.80;99.90
37642;DHT22;23486;51.956;5.888;2024-02-26T02:40:59;5.80;99.90
37642;DHT22;23486;51.956;5.888;2024-02-26T02:43:25;5.80;99.90
37642;DHT22;23486;51.956;5.888;2024-02-26T02:45:51;5.90;99.90
37642;DHT22;23486;51.956;5.888;2024-02-26T02:48:16;5.80;99.90
37642;DHT22;23486;51.956;5.888;2024-02-26T02:50:42;5.80;99.90
37642;DHT22;23486;51.956;5.888;2024-02-26T02:53:07;5.80;99.90
37642;DHT22;23486;51.956;5.888;2024-02-26T02:55:33;5.80;99.90
37642;DHT22;23486;51.956;5.888;2024-02-26T02:57:58;5.80;99.90
37642;DHT22;23486;51.956;5.888;2024-02-26T03:00:24;5.70;99.90
37642;DHT22;23486;51.956;5.888;2024-02-26T03:02:50;5.80;99.90
37642;DHT22;23486;51.956;5.888;2024-02-26T03:05:16;5.80;99.90
37642;DHT22;23486;51.956;5.888;2024-02-26T03:07:42;5.80;99.90
37642;DHT22;23486;51.956;5.888;2024-02-26T03:10:07;5.70;99.90
37642;DHT22;23486;51.956;5.888;2024-02-26T03:12:33;5.70;99.90
37642;DHT22;23486;51.956;5.888;2024-02-26T03:14:59;5.80;99.90
37642;DHT22;23486;51.956;5.888;2024-02-26T03:17:28;5.80;99.90
37642;DHT22;23486;51.956;5.888;2024-02-26T03:19:53;5.80;99.90
37642;DHT22;23486;51.956;5.888;2024-02-26T03:22:19;5.80;99.90
37642;DHT22;23486;51.956;5.888;2024-02-26T03:24:45;5.80;99.90
37642;DHT22;23486;51.956;5.888;2024-02-26T03:27:11;5.80;99.90
37642;DHT22;23486;51.956;5.888;2024-02-26T03:29:37;5.80;99.90
37642;DHT22;23486;51.956;5.888;2024-02-26T03:32:02;5.80;99.90
37642;DHT22;23486;51.956;5.888;2024-02-26T03:34:28;5.80;99.90
37642;DHT22;23486;51.956;5.888;2024-02-26T03:36:53;5.90;99.90
37642;DHT22;23486;51.956;5.888;2024-02-26T03:39:19;5.90;99.90
37642;DHT22;23486;51.956;5.888;2024-02-26T03:41:45;5.90;99.90
37642;DHT22;23486;51.956;5.888;2024-02-26T03:44:10;5.90;99.90
37642;DHT22;23486;51.956;5.888;2024-02-26T03:46:35;5.90;99.90
37642;DHT22;23486;51.956;5.888;2024-02-26T03:49:01;5.90;99.90
37642;DHT22;23486;51.956;5.888;2024-02-26T03:51:26;5.90;99.90
37642;DHT22;23486;51.956;5.888;2024-02-26T03:53:59;5.90;99.90
37642;DHT22;23486;51.956;5.888;2024-02-26T03:56:25;5.90;99.90
37642;DHT22;23486;51.956;5.888;2024-02-26T03:58:51;6.00;99.90
37642;DHT22;23486;51.956;5.888;2024-02-26T04:01:16;6.00;99.90
37642;DHT22;23486;51.956;5.888;2024-02-26T04:03:41;5.90;99.90
37642;DHT22;23486;51.956;5.888;2024-02-26T04:06:10;6.00;99.90
37642;DHT22;23486;51.956;5.888;2024-02-26T04:08:44;6.00;99.90
37642;DHT22;23486;51.956;5.888;2024-02-26T04:11:10;6.00;99.90
37642;DHT22;23486;51.956;5.888;2024-02-26T04:13:36;6.00;99.90
37642;DHT22;23486;51.956;5.888;2024-02-26T04:16:06;6.10;99.90
37642;DHT22;23486;51.956;5.888;2024-02-26T04:18:32;6.10;99.90
37642;DHT22;23486;51.956;5.888;2024-02-26T04:20:57;6.10;99.90
37642;DHT22;23486;51.956;5.888;2024-02-26T04:23:23;6.10;99.90
37642;DHT22;23486;51.956;5.888;2024-02-26T04:25:49;6.10;99.90
37642;DHT22;23486;51.956;5.888;2024-02-26T04:28:14;6.10;99.90
37642;DHT22;23486;51.956;5.888;2024-02-26T04:30:40;6.10;99.90
37642;DHT22;23486;51.956;5.888;2024-02-26T04:33:05;6.10;99.90
37642;DHT22;23486;51.956;5.888;2024-02-26T04:35:31;6.10;99.90
37642;DHT22;23486;51.956;5.888;2024-02-26T04:37:56;6.00;99.90
37642;DHT22;23486;51.956;5.888;2024-02-26T04:40:22;6.00;99.90
37642;DHT22;23486;51.956;5.888;2024-02-26T04:42:47;6.00;99.90
37642;DHT22;23486;51.956;5.888;2024-02-26T04:45:13;5.90;99.90
37642;DHT22;23486;51.956;5.888;2024-02-26T04:47:38;5.90;99.90
37642;DHT22;23486;51.956;5.888;2024-02-26T04:50:04;5.90;99.90
37642;DHT22;23486;51.956;5.888;2024-02-26T04:52:30;5.90;99.90
37642;DHT22;23486;51.956;5.888;2024-02-26T04:54:55;5.90;99.90
37642;DHT22;23486;51.956;5.888;2024-02-26T04:57:21;5.90;99.90
37642;DHT22;23486;51.956;5.888;2024-02-26T04:59:48;5.90;99.90
37642;DHT22;23486;51.956;5.888;2024-02-26T05:02:13;5.80;99.90
37642;DHT22;23486;51.956;5.888;2024-02-26T05:04:39;5.80;99.90
37642;DHT22;23486;51.956;5.888;2024-02-26T05:07:05;5.80;99.90
37642;DHT22;23486;51.956;5.888;2024-02-26T05:09:30;5.80;99.90
37642;DHT22;23486;51.956;5.888;2024-02-26T05:11:56;5.80;99.90
37642;DHT22;23486;51.956;5.888;2024-02-26T05:14:21;5.80;99.90
37642;DHT22;23486;51.956;5.888;2024-02-26T05:16:47;5.80;99.90
37642;DHT22;23486;51.956;5.888;2024-02-26T05:19:13;5.70;99.90
37642;DHT22;23486;51.956;5.888;2024-02-26T05:21:38;5.70;99.90
37642;DHT22;23486;51.956;5.888;2024-02-26T05:24:05;5.60;99.90
37642;DHT22;23486;51.956;5.888;2024-02-26T05:26:30;5.70;99.90
37642;DHT22;23486;51.956;5.888;2024-02-26T05:28:56;5.70;99.90
37642;DHT22;23486;51.956;5.888;2024-02-26T05:31:25;5.70;99.90
37642;DHT22;23486;51.956;5.888;2024-02-26T05:33:50;5.60;99.90
37642;DHT22;23486;51.956;5.888;2024-02-26T05:36:19;5.60;99.90
37642;DHT22;23486;51.956;5.888;2024-02-26T05:38:46;5.60;99.90
37642;DHT22;23486;51.956;5.888;2024-02-26T05:41:11;5.60;99.90
37642;DHT22;23486;51.956;5.888;2024-02-26T05:43:37;5.60;99.90
37642;DHT22;23486;51.956;5.888;2024-02-26T05:46:04;5.60;99.90
37642;DHT22;23486;51.956;5.888;2024-02-26T05:48:30;5.60;99.90
37642;DHT22;23486;51.956;5.888;2024-02-26T05:50:57;5.60;99.90
37642;DHT22;23486;51.956;5.888;2024-02-26T05:53:23;5.60;99.90
37642;DHT22;23486;51.956;5.888;2024-02-26T05:55:48;5.60;99.90
37642;DHT22;23486;51.956;5.888;2024-02-26T05:58:14;5.50;99.90
37642;DHT22;23486;51.956;5.888;2024-02-26T06:00:39;5.50;99.90
37642;DHT22;23486;51.956;5.888;2024-02-26T06:03:05;5.50;99.90
37642;DHT22;23486;51.956;5.888;2024-02-26T06:05:31;5.50;99.90
37642;DHT22;23486;51.956;5.888;2024-02-26T06:07:57;5.50;99.90
37642;DHT22;23486;51.956;5.888;2024-02-26T06:10:22;5.50;99.90
37642;DHT22;23486;51.956;5.888;2024-02-26T06:12:48;5.50;99.90
37642;DHT22;23486;51.956;5.888;2024-02-26T06:15:13;5.50;99.90
37642;DHT22;23486;51.956;5.888;2024-02-26T06:17:39;5.50;99.90
37642;DHT22;23486;51.956;5.888;2024-02-26T06:20:04;5.50;99.90
37642;DHT22;23486;51.956;5.888;2024-02-26T06:22:32;5.50;99.90
37642;DHT22;23486;51.956;5.888;2024-02-26T06:24:57;5.50;99.90
37642;DHT22;23486;51.956;5.888;2024-02-26T06:27:23;5.50;99.90
37642;DHT22;23486;51.956;5.888;2024-02-26T06:29:49;5.50;99.90
37642;DHT22;23486;51.956;5.888;2024-02-26T06:32:14;5.50;99.90
37642;DHT22;23486;51.956;5.888;2024-02-26T06:34:40;5.50;99.90
37642;DHT22;23486;51.956;5.888;2024-02-26T06:37:07;5.50;99.90
37642;DHT22;23486;51.956;5.888;2024-02-26T06:39:33;5.50;99.90
37642;DHT22;23486;51.956;5.888;2024-02-26T06:41:58;5.50;99.90
37642;DHT22;23486;51.956;5.888;2024-02-26T06:44:26;5.40;99.90
37642;DHT22;23486;51.956;5.888;2024-02-26T06:46:57;5.50;99.90
37642;DHT22;23486;51.956;5.888;2024-02-26T06:49:23;5.50;99.90
37642;DHT22;23486;51.956;5.888;2024-02-26T06:51:49;5.50;99.90
37642;DHT22;23486;51.956;5.888;2024-02-26T06:54:14;5.40;99.90
37642;DHT22;23486;51.956;5.888;2024-02-26T06:56:39;5.40;99.90
37642;DHT22;23486;51.956;5.888;2024-02-26T06:59:05;5.40;99.90
37642;DHT22;23486;51.956;5.888;2024-02-26T07:01:30;5.40;99.90
37642;DHT22;23486;51.956;5.888;2024-02-26T07:03:56;5.40;99.90
37642;DHT22;23486;51.956;5.888;2024-02-26T07:06:21;5.30;99.90
37642;DHT22;23486;51.956;5.888;2024-02-26T07:08:48;5.30;99.90
37642;DHT22;23486;51.956;5.888;2024-02-26T07:11:13;5.30;99.90
37642;DHT22;23486;51.956;5.888;2024-02-26T07:13:39;5.30;99.90
37642;DHT22;23486;51.956;5.888;2024-02-26T07:16:04;5.30;99.90
37642;DHT22;23486;51.956;5.888;2024-02-26T07:18:30;5.30;99.90
37642;DHT22;23486;51.956;5.888;2024-02-26T07:20:55;5.30;99.90
37642;DHT22;23486;51.956;5.888;2024-02-26T07:23:23;5.30;99.90
37642;DHT22;23486;51.956;5.888;2024-02-26T07:25:48;5.30;99.90
37642;DHT22;23486;51.956;5.888;2024-02-26T07:31:04;5.30;99.90
37642;DHT22;23486;51.956;5.888;2024-02-26T07:33:29;5.30;99.90
37642;DHT22;23486;51.956;5.888;2024-02-26T07:35:55;5.30;99.90
37642;DHT22;23486;51.956;5.888;2024-02-26T07:38:21;5.30;99.90
37642;DHT22;23486;51.956;5.888;2024-02-26T07:40:52;5.30;99.90
37642;DHT22;23486;51.956;5.888;2024-02-26T07:43:25;5.30;99.90
37642;DHT22;23486;51.956;5.888;2024-02-26T07:45:51;5.30;99.90
37642;DHT22;23486;51.956;5.888;2024-02-26T07:48:16;5.40;99.90
37642;DHT22;23486;51.956;5.888;2024-02-26T07:50:55;5.30;99.90
37642;DHT22;23486;51.956;5.888;2024-02-26T07:53:23;5.30;99.90
37642;DHT22;23486;51.956;5.888;2024-02-26T07:55:52;5.30;99.90
37642;DHT22;23486;51.956;5.888;2024-02-26T07:58:21;5.30;99.90
37642;DHT22;23486;51.956;5.888;2024-02-26T08:00:50;5.20;99.90
37642;DHT22;23486;51.956;5.888;2024-02-26T08:03:21;5.30;99.90
37642;DHT22;23486;51.956;5.888;2024-02-26T08:05:59;5.30;99.90
37642;DHT22;23486;51.956;5.888;2024-02-26T08:08:43;5.30;99.90
37642;DHT22;23486;51.956;5.888;2024-02-26T08:11:21;5.40;99.90
37642;DHT22;23486;51.956;5.888;2024-02-26T08:16:52;5.30;99.90
37642;DHT22;23486;51.956;5.888;2024-02-26T08:19:17;5.30;99.90
37642;DHT22;23486;51.956;5.888;2024-02-26T08:21:43;5.30;99.90
37642;DHT22;23486;51.956;5.888;2024-02-26T08:24:24;5.30;99.90
37642;DHT22;23486;51.956;5.888;2024-02-26T08:26:58;5.30;99.90
37642;DHT22;23486;51.956;5.888;2024-02-26T08:29:35;5.30;99.90
37642;DHT22;23486;51.956;5.888;2024-02-26T08:32:16;5.30;99.90
37642;DHT22;23486;51.956;5.888;2024-02-26T08:37:38;5.30;99.90
37642;DHT22;23486;51.956;5.888;2024-02-26T08:43:09;5.30;99.90
37642;DHT22;23486;51.956;5.888;2024-02-26T08:45:35;5.30;99.90
37642;DHT22;23486;51.956;5.888;2024-02-26T08:48:01;5.20;99.90
37642;DHT22;23486;51.956;5.888;2024-02-26T08:50:27;5.30;99.90
37642;DHT22;23486;51.956;5.888;2024-02-26T08:52:52;5.30;99.90
37642;DHT22;23486;51.956;5.888;2024-02-26T08:55:18;5.30;99.90
37642;DHT22;23486;51.956;5.888;2024-02-26T08:57:44;5.30;99.90
37642;DHT22;23486;51.956;5.888;2024-02-26T09:00:10;5.30;99.90
37642;DHT22;23486;51.956;5.888;2024-02-26T09:02:36;5.30;99.90
37642;DHT22;23486;51.956;5.888;2024-02-26T09:05:04;5.30;99.90
37642;DHT22;23486;51.956;5.888;2024-02-26T09:07:31;5.30;99.90
37642;DHT22;23486;51.956;5.888;2024-02-26T09:09:56;5.30;99.90
37642;DHT22;23486;51.956;5.888;2024-02-26T09:12:22;5.30;99.90
37642;DHT22;23486;51.956;5.888;2024-02-26T09:14:47;5.30;99.90
37642;DHT22;23486;51.956;5.888;2024-02-26T09:17:13;5.40;99.90
37642;DHT22;23486;51.956;5.888;2024-02-26T09:19:38;5.40;99.90
37642;DHT22;23486;51.956;5.888;2024-02-26T09:22:03;5.40;99.90
37642;DHT22;23486;51.956;5.888;2024-02-26T09:24:29;5.40;99.90
37642;DHT22;23486;51.956;5.888;2024-02-26T09:26:55;5.40;99.90
37642;DHT22;23486;51.956;5.888;2024-02-26T09:29:20;5.40;99.90
37642;DHT22;23486;51.956;5.888;2024-02-26T09:31:45;5.40;99.90
37642;DHT22;23486;51.956;5.888;2024-02-26T09:34:13;5.40;99.90
37642;DHT22;23486;51.956;5.888;2024-02-26T09:36:38;5.40;99.90
37642;DHT22;23486;51.956;5.888;2024-02-26T09:39:04;5.50;99.90
37642;DHT22;23486;51.956;5.888;2024-02-26T09:41:30;5.50;99.90
37642;DHT22;23486;51.956;5.888;2024-02-26T09:43:56;5.50;99.90
37642;DHT22;23486;51.956;5.888;2024-02-26T09:46:22;5.50;99.90
37642;DHT22;23486;51.956;5.888;2024-02-26T09:48:49;5.50;99.90
37642;DHT22;23486;51.956;5.888;2024-02-26T09:51:15;5.50;99.90
37642;DHT22;23486;51.956;5.888;2024-02-26T09:53:43;5.50;99.90
37642;DHT22;23486;51.956;5.888;2024-02-26T09:56:09;5.50;99.90
37642;DHT22;23486;51.956;5.888;2024-02-26T09:58:34;5.50;99.90
37642;DHT22;23486;51.956;5.888;2024-02-26T10:01:02;5.60;99.90
37642;DHT22;23486;51.956;5.888;2024-02-26T10:03:28;5.50;99.90
37642;DHT22;23486;51.956;5.888;2024-02-26T10:05:55;5.60;99.90
37642;DHT22;23486;51.956;5.888;2024-02-26T10:08:22;5.60;99.90
37642;DHT22;23486;51.956;5.888;2024-02-26T10:10:49;5.60;99.90
37642;DHT22;23486;51.956;5.888;2024-02-26T10:13:14;5.60;99.90
37642;DHT22;23486;51.956;5.888;2024-02-26T10:15:40;5.60;99.90
37642;DHT22;23486;51.956;5.888;2024-02-26T10:18:06;5.60;99.90
37642;DHT22;23486;51.956;5.888;2024-02-26T10:20:31;5.50;99.90
37642;DHT22;23486;51.956;5.888;2024-02-26T10:22:57;5.50;99.90
37642;DHT22;23486;51.956;5.888;2024-02-26T10:25:23;5.50;99.90
37642;DHT22;23486;51.956;5.888;2024-02-26T10:27:48;5.50;99.90
37642;DHT22;23486;51.956;5.888;2024-02-26T10:30:15;5.60;99.90
37642;DHT22;23486;51.956;5.888;2024-02-26T10:32:43;5.60;99.90
37642;DHT22;23486;51.956;5.888;2024-02-26T10:35:08;5.60;99.90
37642;DHT22;23486;51.956;5.888;2024-02-26T10:37:34;5.60;99.90
37642;DHT22;23486;51.956;5.888;2024-02-26T10:39:59;5.60;99.90
37642;DHT22;23486;51.956;5.888;2024-02-26T10:42:25;5.60;99.90
37642;DHT22;23486;51.956;5.888;2024-02-26T10:44:51;5.60;99.90
37642;DHT22;23486;51.956;5.888;2024-02-26T10:47:16;5.70;99.90
37642;DHT22;23486;51.956;5.888;2024-02-26T10:49:46;5.70;99.90
37642;DHT22;23486;51.956;5.888;2024-02-26T10:52:12;5.80;99.90
37642;DHT22;23486;51.956;5.888;2024-02-26T10:54:38;5.80;99.90
37642;DHT22;23486;51.956;5.888;2024-02-26T10:57:05;5.80;99.90
37642;DHT22;23486;51.956;5.888;2024-02-26T10:59:31;5.80;99.90
37642;DHT22;23486;51.956;5.888;2024-02-26T11:01:57;5.80;99.90
37642;DHT22;23486;51.956;5.888;2024-02-26T11:04:23;5.90;99.90
37642;DHT22;23486;51.956;5.888;2024-02-26T11:06:50;5.90;99.90
37642;DHT22;23486;51.956;5.888;2024-02-26T11:09:15;5.90;99.90
37642;DHT22;23486;51.956;5.888;2024-02-26T11:11:41;5.90;99.90
37642;DHT22;23486;51.956;5.888;2024-02-26T11:14:08;5.80;99.90
37642;DHT22;23486;51.956;5.888;2024-02-26T11:16:34;5.80;99.90
37642;DHT22;23486;51.956;5.888;2024-02-26T11:19:02;5.80;99.90
37642;DHT22;23486;51.956;5.888;2024-02-26T11:21:27;5.80;99.90
37642;DHT22;23486;51.956;5.888;2024-02-26T11:24:04;5.80;99.90
37642;DHT22;23486;51.956;5.888;2024-02-26T11:26:30;5.80;99.90
37642;DHT22;23486;51.956;5.888;2024-02-26T11:28:56;5.80;99.90
37642;DHT22;23486;51.956;5.888;2024-02-26T11:31:24;5.80;99.90
37642;DHT22;23486;51.956;5.888;2024-02-26T11:33:53;5.80;99.90
37642;DHT22;23486;51.956;5.888;2024-02-26T11:36:19;5.70;99.90
37642;DHT22;23486;51.956;5.888;2024-02-26T11:38:46;5.70;99.90
37642;DHT22;23486;51.956;5.888;2024-02-26T11:41:16;5.70;99.90
37642;DHT22;23486;51.956;5.888;2024-02-26T11:51:44;5.70;99.90
37642;DHT22;23486;51.956;5.888;2024-02-26T11:54:36;5.70;99.90
37642;DHT22;23486;51.956;5.888;2024-02-26T11:57:01;5.70;99.90
37642;DHT22;23486;51.956;5.888;2024-02-26T11:59:39;5.80;99.90
37642;DHT22;23486;51.956;5.888;2024-02-26T12:02:06;5.80;99.90
37642;DHT22;23486;51.956;5.888;2024-02-26T12:04:32;5.90;99.90
37642;DHT22;23486;51.956;5.888;2024-02-26T12:07:00;5.90;99.90
37642;DHT22;23486;51.956;5.888;2024-02-26T12:09:38;5.90;99.90
37642;DHT22;23486;51.956;5.888;2024-02-26T12:12:05;5.90;99.90
37642;DHT22;23486;51.956;5.888;2024-02-26T12:14:50;5.90;99.90
37642;DHT22;23486;51.956;5.888;2024-02-26T12:17:20;5.90;99.90
37642;DHT22;23486;51.956;5.888;2024-02-26T12:19:46;5.90;99.90
37642;DHT22;23486;51.956;5.888;2024-02-26T12:22:15;5.90;99.90
37642;DHT22;23486;51.956;5.888;2024-02-26T12:24:41;5.90;99.90
37642;DHT22;23486;51.956;5.888;2024-02-26T12:27:06;5.90;99.90
37642;DHT22;23486;51.956;5.888;2024-02-26T12:29:32;5.90;99.90
37642;DHT22;23486;51.956;5.888;2024-02-26T12:31:57;5.90;99.90
37642;DHT22;23486;51.956;5.888;2024-02-26T12:34:23;6.00;99.90
37642;DHT22;23486;51.956;5.888;2024-02-26T12:36:49;5.90;99.90
37642;DHT22;23486;51.956;5.888;2024-02-26T12:39:14;5.90;99.90
37642;DHT22;23486;51.956;5.888;2024-02-26T12:41:40;6.00;99.90
37642;DHT22;23486;51.956;5.888;2024-02-26T12:44:05;6.00;99.90
37642;DHT22;23486;51.956;5.888;2024-02-26T12:46:32;6.00;99.90
37642;DHT22;23486;51.956;5.888;2024-02-26T12:48:58;6.00;99.90
37642;DHT22;23486;51.956;5.888;2024-02-26T12:51:24;6.00;99.90
37642;DHT22;23486;51.956;5.888;2024-02-26T12:53:50;6.00;99.90
37642;DHT22;23486;51.956;5.888;2024-02-26T12:56:17;6.10;99.90
37642;DHT22;23486;51.956;5.888;2024-02-26T12:58:43;6.10;99.90
37642;DHT22;23486;51.956;5.888;2024-02-26T13:01:13;6.10;99.90
37642;DHT22;23486;51.956;5.888;2024-02-26T13:03:39;6.20;99.90
37642;DHT22;23486;51.956;5.888;2024-02-26T13:06:05;6.10;99.90
37642;DHT22;23486;51.956;5.888;2024-02-26T13:08:31;6.10;99.90
37642;DHT22;23486;51.956;5.888;2024-02-26T13:10:58;6.10;99.90
37642;DHT22;23486;51.956;5.888;2024-02-26T13:13:23;6.20;99.90
37642;DHT22;23486;51.956;5.888;2024-02-26T13:15:49;6.20;99.90
37642;DHT22;23486;51.956;5.888;2024-02-26T13:18:14;6.20;99.90
37642;DHT22;23486;51.956;5.888;2024-02-26T13:20:40;6.20;99.90
37642;DHT22;23486;51.956;5.888;2024-02-26T13:23:07;6.30;99.90
37642;DHT22;23486;51.956;5.888;2024-02-26T13:25:33;6.30;99.90
37642;DHT22;23486;51.956;5.888;2024-02-26T13:28:09;6.30;99.90
37642;DHT22;23486;51.956;5.888;2024-02-26T13:30:35;6.30;99.90
37642;DHT22;23486;51.956;5.888;2024-02-26T13:33:10;6.30;99.90
37642;DHT22;23486;51.956;5.888;2024-02-26T13:35:35;6.30;99.90
37642;DHT22;23486;51.956;5.888;2024-02-26T13:38:02;6.30;99.90
37642;DHT22;23486;51.956;5.888;2024-02-26T13:40:28;6.30;99.90
37642;DHT22;23486;51.956;5.888;2024-02-26T13:42:54;6.30;99.90
37642;DHT22;23486;51.956;5.888;2024-02-26T13:45:19;6.30;99.90
37642;DHT22;23486;51.956;5.888;2024-02-26T13:47:45;6.40;99.90
37642;DHT22;23486;51.956;5.888;2024-02-26T13:50:10;6.40;99.90
37642;DHT22;23486;51.956;5.888;2024-02-26T13:52:36;6.40;99.90
37642;DHT22;23486;51.956;5.888;2024-02-26T13:55:01;6.40;99.90
37642;DHT22;23486;51.956;5.888;2024-02-26T13:57:28;6.40;99.90
37642;DHT22;23486;51.956;5.888;2024-02-26T14:02:19;6.50;99.90
37642;DHT22;23486;51.956;5.888;2024-02-26T14:04:45;6.50;99.90
37642;DHT22;23486;51.956;5.888;2024-02-26T14:07:11;6.50;99.90
37642;DHT22;23486;51.956;5.888;2024-02-26T14:09:37;6.50;99.90
37642;DHT22;23486;51.956;5.888;2024-02-26T14:12:04;6.50;99.90
37642;DHT22;23486;51.956;5.888;2024-02-26T14:14:29;6.50;99.90
37642;DHT22;23486;51.956;5.888;2024-02-26T14:16:58;6.50;99.90
37642;DHT22;23486;51.956;5.888;2024-02-26T14:19:23;6.50;99.90
37642;DHT22;23486;51.956;5.888;2024-02-26T14:21:49;6.50;99.90
37642;DHT22;23486;51.956;5.888;2024-02-26T14:24:14;6.50;99.90
37642;DHT22;23486;51.956;5.888;2024-02-26T14:26:41;6.50;99.90
37642;DHT22;23486;51.956;5.888;2024-02-26T14:29:06;6.50;99.90
37642;DHT22;23486;51.956;5.888;2024-02-26T14:31:32;6.50;99.90
37642;DHT22;23486;51.956;5.888;2024-02-26T14:33:57;6.50;99.90
37642;DHT22;23486;51.956;5.888;2024-02-26T14:36:23;6.60;99.90
37642;DHT22;23486;51.956;5.888;2024-02-26T14:38:49;6.60;99.90
37642;DHT22;23486;51.956;5.888;2024-02-26T14:41:15;6.60;99.90
37642;DHT22;23486;51.956;5.888;2024-02-26T14:43:40;6.60;99.90
37642;DHT22;23486;51.956;5.888;2024-02-26T14:46:06;6.60;99.90
37642;DHT22;23486;51.956;5.888;2024-02-26T14:48:32;6.50;99.90
37642;DHT22;23486;51.956;5.888;2024-02-26T14:50:57;6.50;99.90
37642;DHT22;23486;51.956;5.888;2024-02-26T14:53:24;6.50;99.90
37642;DHT22;23486;51.956;5.888;2024-02-26T14:55:49;6.60;99.90
37642;DHT22;23486;51.956;5.888;2024-02-26T14:58:15;6.60;99.90
37642;DHT22;23486;51.956;5.888;2024-02-26T15:00:41;6.50;99.90
37642;DHT22;23486;51.956;5.888;2024-02-26T15:03:06;6.50;99.90
37642;DHT22;23486;51.956;5.888;2024-02-26T15:05:36;6.50;99.90
37642;DHT22;23486;51.956;5.888;2024-02-26T15:08:01;6.50;99.90
37642;DHT22;23486;51.956;5.888;2024-02-26T15:10:31;6.50;99.90
37642;DHT22;23486;51.956;5.888;2024-02-26T15:12:56;6.40;99.90
37642;DHT22;23486;51.956;5.888;2024-02-26T15:15:22;6.40;99.90
37642;DHT22;23486;51.956;5.888;2024-02-26T15:17:47;6.40;99.90
37642;DHT22;23486;51.956;5.888;2024-02-26T15:20:14;6.40;99.90
37642;DHT22;23486;51.956;5.888;2024-02-26T15:22:39;6.40;99.90
37642;DHT22;23486;51.956;5.888;2024-02-26T15:25:05;6.40;99.90
37642;DHT22;23486;51.956;5.888;2024-02-26T15:27:31;6.40;99.90
37642;DHT22;23486;51.956;5.888;2024-02-26T15:29:56;6.40;99.90
37642;DHT22;23486;51.956;5.888;2024-02-26T15:32:27;6.40;99.90
37642;DHT22;23486;51.956;5.888;2024-02-26T15:34:53;6.40;99.90
37642;DHT22;23486;51.956;5.888;2024-02-26T15:37:19;6.40;99.90
37642;DHT22;23486;51.956;5.888;2024-02-26T15:39:44;6.40;99.90
37642;DHT22;23486;51.956;5.888;2024-02-26T15:42:10;6.30;99.90
37642;DHT22;23486;51.956;5.888;2024-02-26T15:44:37;6.30;99.90
37642;DHT22;23486;51.956;5.888;2024-02-26T15:47:02;6.40;99.90
37642;DHT22;23486;51.956;5.888;2024-02-26T15:52:03;6.40;99.90
37642;DHT22;23486;51.956;5.888;2024-02-26T15:56:54;6.40;99.90
37642;DHT22;23486;51.956;5.888;2024-02-26T15:59:20;6.40;99.90
37642;DHT22;23486;51.956;5.888;2024-02-26T16:01:45;6.30;99.90
37642;DHT22;23486;51.956;5.888;2024-02-26T16:04:12;6.30;99.90
37642;DHT22;23486;51.956;5.888;2024-02-26T16:06:42;6.30;99.90